Time;durP1;ratioP1;P1;durP2;ratioP2;P2;SDS_P1;SDS_P2;PMS_P1;PMS_P2;Temp;Humidity;BMP_temperature;BMP_pressure;BME280_temperature;BME280_humidity;BME280_pressure;Samples;Min_cycle;Max_cycle;Signal;HPM_P1;HPM_P2
2023/04/22 00:00:27;;;;;;;0.10;0.10;;;10.80;99.90;;;11.19;100.00;99897.66;4946061;28;20233;-76
2023/04/22 00:02:55;;;;;;;0.10;0.10;;;;;;;11.20;100.00;99905.59;4947775;28;20324;-78
2023/04/22 00:05:22;;;;;;;0.10;0.10;;;11.00;99.90;;;11.21;100.00;99914.41;4945577;28;20234;-76
2023/04/22 00:07:49;;;;;;;0.10;0.10;;;11.00;99.90;;;11.20;100.00;99908.22;4947643;28;20244;-76
2023/04/22 00:10:16;;;;;;;0.13;0.13;;;11.00;99.90;;;11.18;100.00;99909.13;4946506;28;20249;-76
2023/04/22 00:12:44;;;;;;;0.10;0.10;;;;;;;11.18;100.00;99910.00;4943426;28;20324;-76
2023/04/22 00:15:11;;;;;;;0.25;0.25;;;10.80;99.90;;;11.17;100.00;99921.47;4943219;28;20231;-76
2023/04/22 00:17:39;;;;;;;0.10;0.10;;;10.90;99.90;;;11.20;100.00;99924.09;4942255;28;20234;-77
2023/04/22 00:20:09;;;;;;;0.00;0.00;;;10.90;99.90;;;11.26;100.00;99917.03;4951167;28;20269;-77
2023/04/22 00:22:36;;;;;;;0.10;0.10;;;11.00;99.90;;;11.20;100.00;99925.88;4947019;28;20304;-77
2023/04/22 00:25:04;;;;;;;0.10;0.10;;;11.00;99.90;;;11.27;100.00;99929.38;4948019;28;20245;-76
2023/04/22 00:27:31;;;;;;;0.75;0.32;;;11.00;99.90;;;11.28;100.00;99921.44;4948475;28;20257;-77
2023/04/22 00:29:58;;;;;;;0.10;0.10;;;10.90;99.90;;;11.20;100.00;99916.16;4948640;28;20234;-77
2023/04/22 00:32:25;;;;;;;0.10;0.10;;;11.00;99.90;;;11.19;100.00;99908.22;4950428;28;20731;-77
2023/04/22 00:34:53;;;;;;;0.03;0.03;;;;;;;11.14;100.00;99897.66;4947106;28;20238;-78
2023/04/22 00:37:20;;;;;;;0.10;0.10;;;10.90;99.90;;;11.23;100.00;99908.22;4946884;28;20585;-77
2023/04/22 00:39:47;;;;;;;0.63;0.63;;;10.80;99.90;;;10.91;100.00;99894.16;4950579;28;20740;-77
2023/04/22 00:42:15;;;;;;;0.10;0.10;;;10.70;99.90;;;10.91;100.00;99896.81;4946622;28;20246;-77
2023/04/22 00:44:45;;;;;;;0.13;0.13;;;10.70;99.90;;;11.08;100.00;99910.00;4948967;28;20345;-76
2023/04/22 00:47:13;;;;;;;0.10;0.10;;;;;;;11.02;100.00;99905.59;4947578;28;20237;-76
2023/04/22 00:49:40;;;;;;;0.10;0.10;;;;;;;10.83;100.00;99899.47;4952280;28;20241;-76
2023/04/22 00:52:07;;;;;;;0.10;0.10;;;10.60;99.90;;;10.80;100.00;99906.50;4943668;28;20296;-76
2023/04/22 00:54:35;;;;;;;0.10;0.10;;;10.60;99.90;;;10.88;100.00;99916.22;4947572;28;20261;-77
2023/04/22 00:57:04;;;;;;;0.10;0.10;;;10.60;99.90;;;10.86;100.00;99925.91;4936929;28;20258;-76
2023/04/22 00:59:31;;;;;;;0.10;0.10;;;;;;;10.83;100.00;99923.25;4948028;28;20312;-76
2023/04/22 01:01:59;;;;;;;0.13;0.13;;;10.60;99.90;;;10.86;100.00;99931.19;4948198;28;20235;-76
2023/04/22 01:04:27;;;;;;;0.22;0.22;;;;;;;11.02;100.00;99947.94;4949173;28;20292;-76
2023/04/22 01:06:54;;;;;;;0.00;0.00;;;10.50;99.90;;;10.97;100.00;99949.72;4947935;28;20599;-75
2023/04/22 01:09:21;;;;;;;0.10;0.10;;;10.50;99.90;;;10.84;100.00;99940.91;4942424;28;20230;-76
2023/04/22 01:11:48;;;;;;;0.10;0.10;;;10.60;99.90;;;10.95;100.00;99951.47;4951316;28;20642;-76
2023/04/22 01:14:15;;;;;;;0.03;0.03;;;10.70;99.90;;;10.98;100.00;99950.59;4944394;28;20284;-75
2023/04/22 01:16:44;;;;;;;0.00;0.00;;;10.70;99.90;;;10.92;100.00;99951.47;4945445;28;20238;-76
2023/04/22 01:19:11;;;;;;;0.10;0.10;;;10.60;99.90;;;10.98;100.00;99956.75;4940726;28;20242;-76
2023/04/22 01:21:39;;;;;;;0.10;0.10;;;10.70;99.90;;;10.98;100.00;99953.25;4947881;28;20237;-75
2023/04/22 01:24:08;;;;;;;0.10;0.10;;;10.70;99.90;;;10.97;100.00;99954.13;4940479;28;20321;-76
2023/04/22 01:26:35;;;;;;;0.10;0.10;;;;;;;10.98;100.00;99946.19;4952220;28;20230;-76
2023/04/22 01:29:04;;;;;;;0.05;0.05;;;10.70;99.90;;;10.92;100.00;99945.31;4951737;28;20242;-76
2023/04/22 01:31:32;;;;;;;0.10;0.10;;;10.70;99.90;;;10.87;100.00;99947.94;4950343;28;20233;-76
2023/04/22 01:34:00;;;;;;;0.10;0.10;;;;;;;10.85;100.00;99957.66;4943466;28;20245;-76
2023/04/22 01:36:28;;;;;;;0.10;0.10;;;;;;;10.84;100.00;99964.69;4946439;28;20234;-76
2023/04/22 01:38:55;;;;;;;0.10;0.10;;;;;;;10.80;100.00;99977.94;4960448;28;20320;-76
2023/04/22 01:41:23;;;;;;;0.10;0.10;;;10.40;99.90;;;10.70;100.00;99973.50;4931141;28;20261;-76
2023/04/22 01:43:53;;;;;;;0.47;0.47;;;10.30;99.90;;;10.63;100.00;99969.97;4942320;28;20329;-75
2023/04/22 01:46:20;;;;;;;0.10;0.10;;;;;;;10.65;100.00;99978.78;4925356;29;20239;-75
2023/04/22 01:48:50;;;;;;;0.10;0.10;;;;;;;10.65;100.00;99978.78;4943082;28;20257;-75
2023/04/22 01:51:22;;;;;;;0.40;0.40;;;10.40;99.90;;;10.68;100.00;99988.50;4942026;28;20241;-76
2023/04/22 01:53:50;;;;;;;0.00;0.00;;;10.40;99.90;;;10.72;100.00;99995.53;4958189;28;20230;-75
2023/04/22 01:56:18;;;;;;;0.10;0.10;;;;;;;10.55;100.00;99991.13;5049637;23;20287;-76
2023/04/22 01:58:45;;;;;;;0.10;0.10;;;;;;;10.49;100.00;99996.38;4971766;28;20713;-73
2023/04/22 02:01:13;;;;;;;0.08;0.08;;;;;;;10.39;100.00;99997.22;4978090;28;20251;-74
2023/04/22 02:03:40;;;;;;;0.10;0.10;;;;;;;10.36;100.00;99997.19;4981764;28;20232;-74
2023/04/22 02:06:08;;;;;;;0.10;0.10;;;;;;;10.46;100.00;100003.44;4963956;28;20240;-75
2023/04/22 02:08:35;;;;;;;0.10;0.10;;;;;;;10.50;100.00;100021.06;4969538;28;20335;-75
2023/04/22 02:11:03;;;;;;;0.10;0.10;;;;;;;10.46;100.00;100019.28;4967094;28;20233;-73
2023/04/22 02:13:38;;;;;;;0.10;0.10;;;10.30;99.90;;;10.52;100.00;100024.59;4974048;28;20323;-73
2023/04/22 02:16:06;;;;;;;0.10;0.10;;;10.30;99.90;;;10.57;100.00;100036.06;4959087;28;20291;-73
2023/04/22 02:18:33;;;;;;;0.10;0.10;;;;;;;10.39;100.00;100031.56;4949278;28;20337;-73
2023/04/22 02:21:01;;;;;;;0.10;0.10;;;;;;;10.26;100.00;100021.84;4950721;28;20246;-75
2023/04/22 02:23:28;;;;;;;0.15;0.15;;;;;;;10.29;100.00;100031.53;4963067;28;20245;-74
2023/04/22 02:25:56;;;;;;;0.10;0.10;;;;;;;10.32;100.00;100042.13;4969275;28;20300;-74
2023/04/22 02:28:23;;;;;;;0.10;0.10;;;;;;;10.19;100.00;100047.31;4970713;28;20279;-73
2023/04/22 02:30:50;;;;;;;0.20;0.20;;;;;;;10.20;100.00;100048.25;4966078;28;20247;-73
2023/04/22 02:33:18;;;;;;;0.20;0.20;;;;;;;10.15;100.00;100053.47;4966368;28;20658;-74
2023/04/22 02:35:45;;;;;;;0.13;0.13;;;;;;;10.04;100.00;100051.66;4966661;28;20340;-75
2023/04/22 02:38:13;;;;;;;0.10;0.10;;;;;;;10.02;100.00;100049.00;4964795;28;20284;-73
2023/04/22 02:40:40;;;;;;;0.10;0.10;;;;;;;10.05;100.00;100054.31;4951705;28;20324;-73
2023/04/22 02:43:07;;;;;;;0.38;0.38;;;;;;;10.06;100.00;100056.06;4948423;28;20241;-73
2023/04/22 02:45:35;;;;;;;0.10;0.10;;;;;;;10.04;100.00;100065.75;4954566;28;20261;-75
2023/04/22 02:48:02;;;;;;;0.10;0.10;;;;;;;10.07;100.00;100068.41;4941708;28;20621;-76
2023/04/22 02:50:30;;;;;;;0.10;0.10;;;;;;;10.11;100.00;100082.50;4947834;28;20242;-75
2023/04/22 02:52:57;;;;;;;0.10;0.10;;;;;;;10.12;100.00;100090.44;4953539;28;20343;-73
2023/04/22 02:55:24;;;;;;;0.75;0.75;;;;;;;10.14;100.00;100087.81;4949433;28;20263;-74
2023/04/22 02:57:52;;;;;;;0.22;0.22;;;;;;;10.16;100.00;100101.91;4955954;28;20229;-73
2023/04/22 03:00:19;;;;;;;0.10;0.10;;;;;;;10.08;100.00;100103.63;4945049;28;20234;-73
2023/04/22 03:02:47;;;;;;;0.10;0.10;;;;;;;10.07;100.00;100104.50;4947144;28;20267;-73
2023/04/22 03:05:14;;;;;;;0.08;0.08;;;;;;;10.03;100.00;100108.88;4950873;28;20236;-72
2023/04/22 03:07:43;;;;;;;0.10;0.10;;;;;;;9.95;100.00;100103.56;4949130;28;20322;-73
2023/04/22 03:10:10;;;;;;;0.10;0.10;;;9.70;99.90;;;9.96;100.00;100107.09;4948572;28;20234;-73
2023/04/22 03:12:37;;;;;;;0.10;0.10;;;;;;;9.89;100.00;100106.16;4948246;28;20230;-73
2023/04/22 03:15:05;;;;;;;0.10;0.10;;;;;;;9.88;100.00;100109.69;4948619;28;20258;-75
2023/04/22 03:17:33;;;;;;;0.10;0.10;;;;;;;9.88;100.00;100114.97;4950579;28;20245;-75
2023/04/22 03:20:01;;;;;;;0.10;0.10;;;;;;;9.84;100.00;100110.53;4963834;28;20233;-73
2023/04/22 03:22:28;;;;;;;0.10;0.10;;;;;;;9.66;100.00;100106.88;4969498;28;20240;-73
2023/04/22 03:24:55;;;;;;;0.20;0.20;;;;;;;9.61;100.00;100110.38;4969262;28;20353;-73
2023/04/22 03:27:23;;;;;;;0.30;0.30;;;;;;;9.62;100.00;100108.63;4967212;28;20320;-73
2023/04/22 03:29:50;;;;;;;0.13;0.13;;;;;;;9.62;100.00;100117.41;4959318;28;20245;-73
2023/04/22 03:32:17;;;;;;;1.25;0.38;;;;;;;9.55;100.00;100109.44;4973668;28;20288;-74
2023/04/22 03:34:45;;;;;;;0.10;0.10;;;;;;;9.53;100.00;100112.06;4970602;28;20538;-73
2023/04/22 03:37:13;;;;;;;0.10;0.10;;;;;;;9.52;100.00;100112.06;4975759;28;20259;-75
2023/04/22 03:39:40;;;;;;;0.32;0.32;;;;;;;9.42;100.00;100108.47;4969549;28;20233;-75
2023/04/22 03:42:09;;;;;;;0.10;0.10;;;;;;;9.24;100.00;100106.53;4964551;28;20238;-75
2023/04/22 03:44:36;;;;;;;0.10;0.10;;;;;;;9.29;100.00;100109.22;4945047;28;20238;-75
2023/04/22 03:47:04;;;;;;;0.10;0.10;;;;;;;9.31;100.00;100110.13;4963254;28;20240;-73
2023/04/22 03:49:32;;;;;;;0.10;0.10;;;;;;;9.06;100.00;100108.97;4956038;28;20236;-73
2023/04/22 03:52:00;;;;;;;0.10;0.10;;;;;;;8.97;100.00;100101.84;4952673;28;20261;-73
2023/04/22 03:54:27;;;;;;;0.10;0.10;;;;;;;8.96;100.00;100102.72;4935305;28;20246;-73
2023/04/22 03:56:55;;;;;;;2.55;0.75;;;;;;;9.01;100.00;100108.03;4954694;28;20261;-73
2023/04/22 03:59:22;;;;;;;0.10;0.10;;;;;;;9.05;100.00;100111.59;4962381;28;20237;-73
2023/04/22 04:01:52;;;;;;;0.32;0.32;;;8.80;99.90;;;9.09;100.00;100102.84;4954505;28;20293;-73
2023/04/22 04:04:22;;;;;;;0.10;0.10;;;;;;;9.06;100.00;100114.25;4953274;28;21222;-73
2023/04/22 04:06:50;;;;;;;0.35;0.30;;;;;;;9.03;100.00;100108.06;4954955;28;20328;-73
2023/04/22 04:09:17;;;;;;;0.10;0.10;;;;;;;8.92;100.00;100098.28;4960656;28;20252;-73
2023/04/22 04:11:44;;;;;;;0.10;0.10;;;;;;;8.85;100.00;100091.19;4977609;28;20303;-73
2023/04/22 04:14:12;;;;;;;0.10;0.10;;;;;;;8.46;100.00;100086.34;4967363;28;20308;-73
2023/04/22 04:16:39;;;;;;;0.10;0.10;;;;;;;8.49;100.00;100080.22;4970224;28;20706;-73
2023/04/22 04:19:07;;;;;;;0.10;0.10;;;;;;;8.69;100.00;100093.63;4979305;28;20300;-73
2023/04/22 04:21:34;;;;;;;0.10;0.10;;;;;;;8.59;100.00;100101.44;4974028;28;20242;-73
2023/04/22 04:24:03;;;;;;;0.10;0.10;;;8.30;99.90;;;8.59;100.00;100098.81;4966838;28;20268;-73
2023/04/22 04:26:31;;;;;;;0.10;0.10;;;;;;;8.61;100.00;100106.72;4968959;28;20233;-73
2023/04/22 04:29:00;;;;;;;0.10;0.10;;;;;;;8.65;100.00;100114.69;4973719;28;20249;-73
2023/04/22 04:31:28;;;;;;;0.10;0.10;;;8.40;99.90;;;8.72;100.00;100122.66;4973166;28;20245;-73
2023/04/22 04:33:56;;;;;;;0.10;0.10;;;;;;;8.72;100.00;100125.31;4975586;28;20713;-73
2023/04/22 04:36:27;;;;;;;0.10;0.10;;;;;;;8.63;100.00;100118.19;4972260;28;20259;-73
2023/04/22 04:38:55;;;;;;;0.10;0.10;;;;;;;8.70;100.00;100120.00;4973567;28;20268;-73
2023/04/22 04:41:25;;;;;;;0.00;0.00;;;;;;;8.66;100.00;100129.63;4972908;28;20312;-72
2023/04/22 04:43:53;;;;;;;0.10;0.10;;;;;;;8.70;100.00;100132.31;4969121;28;20369;-73
2023/04/22 04:46:20;;;;;;;0.10;0.10;;;;;;;8.74;100.00;100136.75;4971016;28;20268;-76
2023/04/22 04:48:50;;;;;;;0.10;0.10;;;;;;;8.75;100.00;100136.78;4972071;28;20243;-77
2023/04/22 04:51:17;;;;;;;0.30;0.30;;;;;;;8.80;100.00;100136.81;4970715;28;20240;-76
2023/04/22 04:53:46;;;;;;;0.10;0.10;;;8.60;99.90;;;8.86;100.00;100148.31;4969788;28;20244;-76
2023/04/22 04:56:13;;;;;;;0.10;0.10;;;;;;;8.92;100.00;100150.13;4970521;28;20248;-74
2023/04/22 04:58:41;;;;;;;0.22;0.22;;;;;;;9.01;100.00;100163.44;4973906;28;20323;-75
2023/04/22 05:01:08;;;;;;;0.57;0.57;;;;;;;9.00;100.00;100172.22;4972039;28;20290;-76
2023/04/22 05:03:36;;;;;;;0.10;0.10;;;;;;;9.06;100.00;100176.66;4971430;28;20247;-74
2023/04/22 05:06:04;;;;;;;0.10;0.10;;;8.80;99.90;;;9.08;100.00;100191.66;4976550;28;20247;-77
2023/04/22 05:08:31;;;;;;;0.10;0.10;;;;;;;9.06;100.00;100198.66;4972459;28;20240;-76
2023/04/22 05:10:59;;;;;;;0.10;0.10;;;;;;;9.08;100.00;100203.94;4970796;28;20552;-75
2023/04/22 05:13:27;;;;;;;0.10;0.10;;;;;;;9.11;100.00;100204.00;4971869;28;20248;-74
2023/04/22 05:15:54;;;;;;;0.10;0.10;;;;;;;9.11;100.00;100212.81;4969108;28;20244;-76
2023/04/22 05:18:21;;;;;;;0.10;0.10;;;;;;;9.12;100.00;100222.50;4970153;28;20268;-77
2023/04/22 05:20:49;;;;;;;0.15;0.15;;;;;;;9.01;100.00;100208.25;4971591;28;20358;-77
2023/04/22 05:23:16;;;;;;;0.10;0.10;;;;;;;9.02;100.00;100217.94;4965064;28;20300;-74
2023/04/22 05:25:44;;;;;;;0.52;0.17;;;;;;;8.98;100.00;100218.78;4968335;28;20268;-74
2023/04/22 05:28:11;;;;;;;0.10;0.10;;;;;;;8.95;100.00;100218.75;4972765;28;20237;-74
2023/04/22 05:30:38;;;;;;;0.50;0.50;;;8.70;99.90;;;8.89;100.00;100227.47;4970665;28;20319;-74
2023/04/22 05:33:07;;;;;;;0.10;0.10;;;;;;;8.92;100.00;100226.63;4952497;28;20356;-75
2023/04/22 05:35:35;;;;;;;0.10;0.10;;;;;;;8.89;100.00;100230.09;4964692;28;20229;-74
2023/04/22 05:38:02;;;;;;;0.10;0.10;;;;;;;8.85;100.00;100238.84;4966282;28;20276;-74
2023/04/22 05:40:29;;;;;;;0.10;0.10;;;;;;;8.89;100.00;100245.03;4968098;28;20291;-73
2023/04/22 05:42:57;;;;;;;0.10;0.10;;;;;;;9.04;100.00;100268.09;4970387;28;20281;-74
2023/04/22 05:45:24;;;;;;;0.10;0.10;;;8.80;99.90;;;9.08;100.00;100272.53;4966550;28;20240;-76
2023/04/22 05:47:51;;;;;;;0.10;0.10;;;;;;;9.20;100.00;100280.63;4966909;28;20229;-78
2023/04/22 05:50:19;;;;;;;0.10;0.10;;;;;;;9.32;100.00;100290.44;4969829;28;20229;-78
2023/04/22 05:52:49;;;;;;;0.10;0.10;;;;;;;9.43;100.00;100302.00;4968708;28;20237;-76
2023/04/22 05:55:17;;;;;;;0.10;0.10;;;;;;;9.57;100.00;100317.13;4956666;28;20690;-75
2023/04/22 05:57:44;;;;;;;0.10;0.10;;;;;;;9.68;100.00;100319.00;4971372;28;20309;-75
2023/04/22 06:00:12;;;;;;;0.20;0.20;;;9.50;99.90;;;9.79;100.00;100336.72;4970145;28;20244;-76
2023/04/22 06:02:40;;;;;;;0.10;0.10;;;;;;;9.87;100.00;100345.63;4968098;28;20240;-75
2023/04/22 06:05:08;;;;;;;0.10;0.10;;;9.70;99.90;;;9.95;100.00;100345.69;4965099;28;20295;-75
2023/04/22 06:07:36;;;;;;;0.10;0.10;;;;;;;10.04;100.00;100353.72;4970990;28;20240;-75
2023/04/22 06:10:03;;;;;;;0.10;0.10;;;;;;;10.20;100.00;100363.59;4954233;28;20275;-76
2023/04/22 06:12:33;;;;;;;0.10;0.10;;;10.00;99.90;;;10.42;100.00;100371.75;4968229;28;20232;-75
2023/04/22 06:15:00;;;;;;;1.92;1.83;;;;;;;10.65;100.00;100382.50;4967323;28;20244;-78
2023/04/22 06:17:28;;;;;;;0.10;0.10;;;;;;;10.66;100.00;100374.59;4964321;28;20240;-78
2023/04/22 06:19:55;;;;;;;0.08;0.08;;;;;;;10.75;100.00;100379.94;4971446;28;20623;-77
2023/04/22 06:22:23;;;;;;;0.10;0.10;;;;;;;10.87;100.00;100398.56;4965131;28;20240;-76
2023/04/22 06:24:50;;;;;;;0.10;0.10;;;;;;;11.08;100.00;100408.41;4960208;28;20243;-77
2023/04/22 06:27:18;;;;;;;0.00;0.00;;;;;;;11.15;100.00;100409.31;4968637;28;20233;-77
2023/04/22 06:29:45;;;;;;;0.15;0.15;;;;;;;11.11;100.00;100404.88;4964805;28;20270;-77
2023/04/22 06:32:13;;;;;;;0.10;0.10;;;;;;;11.19;100.00;100404.06;4960498;28;20240;-78
2023/04/22 06:34:40;;;;;;;0.10;0.10;;;;;;;11.26;100.00;100406.75;4969129;28;20731;-76
2023/04/22 06:37:08;;;;;;;0.10;0.10;;;11.10;99.90;;;11.43;100.00;100405.06;4966331;28;20233;-77
2023/04/22 06:39:36;;;;;;;0.25;0.25;;;;;;;11.53;100.00;100420.13;4975375;28;20247;-77
2023/04/22 06:42:04;;;;;;;0.00;0.00;;;;;;;11.73;100.00;100414.94;4972465;28;20233;-77
2023/04/22 06:44:31;;;;;;;0.00;0.00;;;;;;;11.82;100.00;100407.94;4953610;28;20269;-77
2023/04/22 06:46:59;;;;;;;0.20;0.20;;;;;;;11.82;100.00;100410.59;4971027;28;20260;-77
2023/04/22 06:49:26;;;;;;;0.00;0.00;;;;;;;11.97;100.00;100414.19;4968902;28;20236;-77
2023/04/22 06:51:54;;;;;;;0.10;0.10;;;;;;;12.12;100.00;100407.16;4969101;28;20296;-77
2023/04/22 06:54:21;;;;;;;0.10;0.10;;;11.90;99.90;;;12.25;100.00;100402.75;4966475;28;20233;-78
2023/04/22 06:56:48;;;;;;;0.10;0.10;;;;;;;12.21;100.00;100387.72;4963794;28;20345;-77
2023/04/22 06:59:29;;;;;;;0.10;0.10;;;;;;;12.20;100.00;100382.41;4970735;28;20240;-77
2023/04/22 07:01:56;;;;;;;0.38;0.38;;;;;;;12.13;100.00;100366.50;4972207;28;20236;-77
2023/04/22 07:04:26;;;;;;;0.10;0.10;;;;;;;12.18;100.00;100359.44;4968843;28;20713;-78
2023/04/22 07:06:54;;;;;;;0.38;0.38;;;;;;;12.18;100.00;100332.03;4965377;28;20243;-77
2023/04/22 07:09:21;;;;;;;0.10;0.10;;;;;;;12.25;100.00;100327.63;4967375;28;20289;-77
2023/04/22 07:11:48;;;;;;;0.45;0.45;;;12.00;99.90;;;12.28;100.00;100324.97;4968607;28;20240;-75
2023/04/22 07:14:15;;;;;;;0.00;0.00;;;12.20;99.90;;;12.52;100.00;100322.31;4951796;28;20241;-75
2023/04/22 07:16:43;;;;;;;0.10;0.10;;;;;;;12.49;100.00;100317.03;4960850;28;20241;-78
2023/04/22 07:19:10;;;;;;;0.52;0.52;;;;;;;12.37;100.00;100286.09;4969021;28;20243;-78
2023/04/22 07:21:38;;;;;;;0.00;0.00;;;;;;;12.49;100.00;100283.44;4965053;28;20256;-79
2023/04/22 07:24:05;;;;;;;0.15;0.15;;;;;;;12.93;100.00;100276.25;4966102;28;20295;-82
2023/04/22 07:26:33;;;;;;;0.10;0.10;;;;;;;12.98;100.00;100269.16;4943461;28;20257;-82
2023/04/22 07:29:00;;;;;;;0.05;0.05;;;;;;;13.10;100.00;100263.84;4949016;28;20241;-78
2023/04/22 07:31:28;;;;;;;0.00;0.00;;;;;;;13.23;100.00;100243.47;4964830;28;20259;-78
2023/04/22 07:33:55;;;;;;;0.08;0.08;;;;;;;13.39;100.00;100226.56;4970932;28;20295;-78
2023/04/22 07:36:22;;;;;;;0.52;0.52;;;;;;;13.49;100.00;100203.47;4967922;28;20236;-77
2023/04/22 07:38:50;;;;;;;0.50;0.50;;;;;;;13.34;100.00;100180.53;4964460;28;20236;-78
2023/04/22 07:41:17;;;;;;;0.00;0.00;;;;;;;13.66;100.00;100177.66;4965287;28;20229;-78
2023/04/22 07:43:45;;;;;;;0.10;0.10;;;;;;;13.60;100.00;100149.38;4962603;28;20260;-77
2023/04/22 07:46:12;;;;;;;0.00;0.00;;;13.40;99.90;;;13.88;100.00;100154.44;4945935;28;20340;-77
2023/04/22 07:48:42;;;;;;;0.20;0.20;;;13.70;99.90;;;13.99;100.00;100123.31;4965805;28;20256;-78
2023/04/22 07:51:21;;;;;;;0.25;0.25;;;13.80;99.90;;;14.16;100.00;100109.88;4962968;28;20225;-79
2023/04/22 07:53:49;;;;;;;0.03;0.03;;;;;;;14.09;100.00;100067.38;4964782;28;20233;-79
2023/04/22 07:56:16;;;;;;;0.00;0.00;;;;;;;14.53;100.00;100065.16;4965343;28;20356;-77
2023/04/22 07:58:44;;;;;;;0.20;0.20;;;;;;;14.63;100.00;100056.16;4970237;28;20327;-76
2023/04/22 08:01:11;;;;;;;0.00;0.00;;;;;;;14.56;100.00;100017.22;4969485;28;20265;-76
2023/04/22 08:03:39;;;;;;;0.35;0.35;;;;;;;14.67;100.00;100000.19;4959725;28;20233;-77
2023/04/22 08:06:07;;;;;;;0.73;0.73;;;;;;;14.69;100.00;99973.56;4966275;28;20311;-76
2023/04/22 08:08:34;;;;;;;0.10;0.10;;;;;;;15.03;100.00;99961.47;4969028;28;20268;-78
2023/04/22 08:11:02;;;;;;;0.05;0.05;;;;;;;15.19;100.00;99932.78;4971898;28;20237;-79
2023/04/22 08:13:29;;;;;;;0.10;0.10;;;;;;;15.67;100.00;99922.19;4971796;28;21194;-78
2023/04/22 08:15:57;;;;;;;0.20;0.20;;;;;;;15.89;100.00;99891.50;4972195;28;20236;-79
2023/04/22 08:18:24;;;;;;;0.00;0.00;;;;;;;16.06;100.00;99859.13;4970259;28;20233;-78
2023/04/22 08:20:52;;;;;;;0.08;0.08;;;;;;;16.16;100.00;99820.66;4964980;28;20317;-78
2023/04/22 08:23:20;;;;;;;0.00;0.00;;;;;;;16.01;100.00;99762.34;4964072;28;20345;-78
2023/04/22 08:25:48;;;;;;;0.10;0.10;;;15.90;99.90;;;16.12;100.00;99754.97;4968520;28;20249;-78
2023/04/22 08:28:16;;;;;;;0.00;0.00;;;;;;;16.51;100.00;99742.41;4955867;28;20234;-78
2023/04/22 08:30:44;;;;;;;0.52;0.52;;;;;;;16.72;100.00;99722.31;4959227;28;20253;-78
2023/04/22 08:33:11;;;;;;;0.00;0.00;;;;;;;16.97;100.00;99678.91;4971056;28;20243;-79
2023/04/22 08:35:39;;;;;;;0.00;0.00;;;;;;;17.05;100.00;99658.19;4962899;28;20246;-78
2023/04/22 08:38:06;;;;;;;0.10;0.10;;;;;;;17.37;100.00;99679.47;4947227;28;20238;-78
2023/04/22 08:40:34;;;;;;;1.60;0.40;;;16.90;99.90;;;17.19;100.00;99650.66;4969423;28;20225;-78
2023/04/22 08:43:02;;;;;;;0.00;0.00;;;;;;;17.07;100.00;99597.59;4954396;28;20238;-79
2023/04/22 08:45:30;;;;;;;0.35;0.35;;;17.10;99.90;;;17.30;100.00;99611.09;4961726;28;20329;-81
2023/04/22 08:47:58;;;;;;;0.05;0.05;;;;;;;17.41;100.00;99619.66;4961407;28;20256;-78
2023/04/22 08:50:25;;;;;;;0.00;0.00;;;;;;;17.63;100.00;99606.47;4952731;28;20289;-78
2023/04/22 08:52:53;;;;;;;0.00;0.00;;;;;;;17.80;100.00;99598.81;4965353;28;20233;-80
2023/04/22 08:55:21;;;;;;;0.22;0.22;;;;;;;17.96;100.00;99584.91;4973487;28;20289;-80
2023/04/22 08:57:49;;;;;;;0.00;0.00;;;;;;;17.93;100.00;99553.78;4971961;28;20225;-80
2023/04/22 09:00:17;;;;;;;0.00;0.00;;;17.60;99.90;;;17.85;100.00;99527.31;4966110;28;20705;-80
2023/04/22 09:02:47;;;;;;;0.00;0.00;;;22.10;99.90;;;17.69;100.00;99456.56;4973200;28;20304;-80
2023/04/22 09:05:15;;;;;;;0.00;0.00;;;17.50;99.90;;;17.79;100.00;99455.31;4972090;28;20229;-80
2023/04/22 09:07:42;;;;;;;0.10;0.10;;;17.70;99.90;;;17.90;100.00;99422.81;4971928;28;20640;-80
2023/04/22 09:10:10;;;;;;;0.00;0.00;;;17.80;99.90;;;18.23;100.00;99476.91;4965090;28;20288;-79
2023/04/22 09:12:39;;;;;;;0.00;0.00;;;18.00;99.90;;;18.34;100.00;99464.00;4952234;28;20288;-78
2023/04/22 09:15:08;;;;;;;0.32;0.32;;;18.20;99.90;;;18.50;100.00;99464.28;4966386;28;20292;-78
2023/04/22 09:17:40;;;;;;;0.00;0.00;;;;;;;18.32;100.00;99435.56;4966255;28;20244;-77
2023/04/22 09:20:08;;;;;;;0.00;0.00;;;;;;;17.80;100.00;99355.44;4963579;28;20267;-78
2023/04/22 09:22:45;;;;;;;0.00;0.00;;;18.10;99.90;;;18.56;100.00;99466.72;4967805;28;20233;-78
2023/04/22 09:25:25;;;;;;;0.00;0.00;;;18.40;99.90;;;18.51;100.00;99401.78;4969105;28;20235;-78
2023/04/22 09:27:56;;;;;;;0.00;0.00;;;18.30;99.90;;;18.73;100.00;99408.06;4971416;28;20244;-78
2023/04/22 09:30:30;;;;;;;0.00;0.00;;;18.40;99.90;;;18.50;100.00;99322.41;4974689;28;20301;-78
2023/04/22 09:33:00;;;;;;;0.28;0.28;;;18.50;99.90;;;18.97;100.00;99344.56;4972302;28;20265;-78
2023/04/22 09:35:38;;;;;;;0.00;0.00;;;18.80;99.90;;;19.23;100.00;99351.47;4966751;28;20654;-78
2023/04/22 09:38:11;;;;;;;0.03;0.03;;;19.00;99.90;;;19.21;100.00;99272.06;4969595;28;20282;-79
2023/04/22 09:40:42;;;;;;;0.00;0.00;;;19.20;99.90;;;19.48;100.00;99270.81;4955665;28;20268;-78
2023/04/22 09:43:10;;;;;;;0.00;0.00;;;19.40;99.90;;;19.72;100.00;99252.78;4967870;28;20232;-78
2023/04/22 09:45:40;;;;;;;0.00;0.00;;;19.50;99.90;;;19.94;100.00;99282.16;4963530;28;20725;-78
2023/04/22 09:48:17;;;;;;;0.00;0.00;;;19.40;99.90;;;19.69;100.00;99202.84;4971567;28;20232;-78
2023/04/22 09:50:47;;;;;;;0.00;0.00;;;19.50;99.90;;;20.00;100.00;99233.56;4959078;28;20237;-78
2023/04/22 09:53:17;;;;;;;0.00;0.00;;;19.70;99.90;;;20.05;100.00;99199.31;4949624;28;20280;-78
2023/04/22 09:55:52;;;;;;;0.00;0.00;;;19.70;99.90;;;19.95;100.00;99173.88;4950506;28;20264;-78
2023/04/22 09:58:22;;;;;;;0.00;0.00;;;19.80;99.90;;;19.91;100.00;99142.78;4969119;28;20239;-79
2023/04/22 10:00:56;;;;;;;0.03;0.03;;;19.80;99.90;;;20.11;100.00;99178.41;4966540;28;20278;-79
2023/04/22 10:03:24;;;;;;;0.22;0.08;;;;;;;19.91;100.00;99090.00;4969381;28;20264;-80
2023/04/22 10:05:52;;;;;;;0.00;0.00;;;;;;;20.45;100.00;99185.66;4967254;28;20644;-80
2023/04/22 10:08:19;;;;;;;0.20;0.20;;;20.40;99.90;;;20.83;100.00;99196.28;4971774;28;20240;-78
2023/04/22 10:10:49;;;;;;;0.00;0.00;;;20.30;99.90;;;20.29;100.00;99036.16;4971733;28;20236;-80
2023/04/22 10:13:16;;;;;;;0.00;0.00;;;;;;;20.47;100.00;99054.00;4959286;28;20229;-79
2023/04/22 10:15:48;;;;;;;0.00;0.00;;;20.40;99.90;;;20.44;100.00;98990.59;4945721;28;20287;-80
2023/04/22 10:18:23;;;;;;;0.00;0.00;;;20.20;99.90;;;20.31;100.00;98962.66;4965569;28;20295;-79
2023/04/22 10:20:53;;;;;;;0.08;0.08;;;20.30;99.90;;;20.55;100.00;99003.44;4969685;28;20290;-78
2023/04/22 10:23:23;;;;;;;0.10;0.10;;;20.60;99.90;;;21.12;100.00;99037.94;4977438;28;20260;-80
2023/04/22 10:25:55;;;;;;;0.00;0.00;;;21.30;99.90;;;21.72;100.00;99082.03;4967923;28;20271;-78
2023/04/22 10:28:27;;;;;;;0.00;0.00;;;21.30;99.90;;;21.53;100.00;98973.75;4965362;28;20232;-78
2023/04/22 10:30:54;;;;;;;0.10;0.10;;;;;;;21.52;100.00;98900.28;4965741;28;20263;-78
2023/04/22 10:33:33;;;;;;;0.00;0.00;;;;;;;21.52;100.00;98883.25;4967170;28;20243;-78
2023/04/22 10:36:17;;;;;;;0.00;0.00;;;21.60;99.90;;;21.76;100.00;98875.53;4970030;28;20636;-78
2023/04/22 10:38:52;;;;;;;0.00;0.00;;;21.50;99.90;;;21.63;100.00;98765.97;4950406;28;20363;-78
2023/04/22 10:41:25;;;;;;;0.00;0.00;;;21.60;99.90;;;22.02;100.00;98820.94;4967569;28;20397;-78
2023/04/22 10:44:03;;;;;;;0.00;0.00;;;21.70;99.90;;;21.91;100.00;98742.72;4982650;28;20255;-78
2023/04/22 10:46:38;;;;;;;0.00;0.00;;;;;;;22.20;100.00;98716.66;4974127;28;20315;-78
2023/04/22 10:49:11;;;;;;;0.10;0.10;;;21.60;99.90;;;22.05;100.00;98694.25;4964423;28;20236;-78
2023/04/22 10:51:39;;;;;;;0.00;0.00;;;;;;;22.11;100.00;98572.75;4957960;28;20233;-78
2023/04/22 10:57:07;;;;;;;0.90;0.90;;;21.50;99.90;;;21.83;100.00;98511.78;4969117;28;20240;-78
2023/04/22 10:59:57;;;;;;;0.43;0.43;;;21.90;99.90;;;22.68;100.00;98629.84;4966291;28;20240;-78
2023/04/22 11:02:24;;;;;;;0.13;0.13;;;;;;;22.45;100.00;98486.97;4966829;28;20334;-78